Middleton, WI (53562)

6:31 PM CDT on August 28, 2015 (GMT -0500)
Middleton | | Change Station
CLOSE
Current Station
Airport
Location: Middleton,
Elevation: 928 ft
Nearby Weather Stations

Elev 928 ft 43.12 °N, 89.53 °W | Updated 16 minutes ago

Overcast
Overcast
65 °F
Feels Like 65 °F
N
0
Wind Variable Wind from North

Today
High -- | Low -- °F
--% Chance of Precip.
Yesterday
High -- | Low -- °F
Precip. -- in
6:17 AM 7:40 PM
Waxing Gibbous, 99% visible
Pressure 30.08 in
Visibility 1.8 miles
Clouds Scattered Clouds 900 ft
Scattered Clouds 4800 ft
Overcast 6000 ft
Dew Point 64 °F
Humidity 98%
Rainfall 0.36 in
Snow Depth Not available.
UV 0 out of 12
Pollen 3.70 out of 12
Air Quality Not available.
Flu Activity Not available.
METAR KC29 282315Z AUTO 00000KT 1 3/4SM SCT009 SCT048 OVC060 18/18 A3008 RMK AO1 P0007 T01820178
Pressure 30.08 in
Visibility 1.8 miles
Clouds Scattered Clouds 900 ft
Scattered Clouds 4800 ft
Overcast 6000 ft
Dew Point 64 °F
Humidity 98%
Rainfall 0.36 in
Snow Depth Not available.
UV 0 out of 12
Pollen 3.70 out of 12
Air Quality Not available.
Flu Activity Not available.
METAR KC29 282315Z AUTO 00000KT 1 3/4SM SCT009 SCT048 OVC060 18/18 A3008 RMK AO1 P0007 T01820178

10-Day Weather Forecast

×

Almanac

Astronomy

Aug. 28, 2015 Rise Set
Actual Time
Civil Twilight
Nautical Twilight
Astronomical Twilight
Moon
Length of Visible Light
Length of Day
Tomorrow will be .
, % of the Moon is Illuminated

Today's Extremes

State Highs State Lows

Community

WunderPhotos

Upload Photos

1,850,532 photos uploaded!

WunderBlogs® & News

Nearby

Air Quality

  Air Quality AQ Index Pollutant
Not available.

Snow Depth

Station Depth Elevation

Earthquake Activity

City Distance Mag. Time & Date
Minimum magnitude displayed is 2.5.

Coastal Water Temperatures

Place Temperature

Stations

Nearby Weather Stations

Station Location Temp. Windchill Dew Point Humidity Wind Precip. Elev Updated Type